ASA70 PANC-PAJN
Flight info
| Callsign | ASA70 |
|---|---|
| Flight time | 1h 12m |
| Altitude | 35000 |
| Route | JOH J501 YAK FAKES ASORT |
| Aircraft | B738/M-SDE2E3FGHIRWXY/LB1 |
Departure
| Time | 2026-04-21 21:36 |
|---|---|
| Airport | Ted Stevens Anchorage International Airport (PANC) |
Arrival
| Time | 2026-04-21 22:49 |
|---|---|
| Airport | Juneau International Airport (PAJN) |
| Time | Latitude | Longitude | Altitude | Speed | Heading |
|---|---|---|---|---|---|
| 2026-04-21 21:05 | 61.17433 | -149.98399 | 116 ft | 0 kts | 84° |
| 2026-04-21 21:27 | 61.17432 | -149.98419 | 119 ft | 4 kts | 85° |
| 2026-04-21 21:27 | 61.17431 | -149.98474 | 119 ft | 4 kts | 94° |
| 2026-04-21 21:27 | 61.17435 | -149.98529 | 118 ft | 4 kts | 110° |
| 2026-04-21 21:28 | 61.17448 | -149.98573 | 116 ft | 4 kts | 149° |
| 2026-04-21 21:28 | 61.17469 | -149.98592 | 116 ft | 4 kts | 159° |
| 2026-04-21 21:28 | 61.17478 | -149.98599 | 115 ft | 0 kts | 159° |
| 2026-04-21 21:30 | 61.17474 | -149.98596 | 118 ft | 2 kts | 159° |
| 2026-04-21 21:31 | 61.17442 | -149.98572 | 116 ft | 8 kts | 165° |
| 2026-04-21 21:31 | 61.17378 | -149.98617 | 116 ft | 12 kts | 212° |
| 2026-04-21 21:31 | 61.17312 | -149.98713 | 119 ft | 12 kts | 215° |
| 2026-04-21 21:31 | 61.17239 | -149.98778 | 119 ft | 11 kts | 177° |
| 2026-04-21 21:32 | 61.17164 | -149.98734 | 118 ft | 11 kts | 155° |
| 2026-04-21 21:32 | 61.17121 | -149.98614 | 118 ft | 11 kts | 101° |
| 2026-04-21 21:32 | 61.17118 | -149.98446 | 117 ft | 13 kts | 90° |
| 2026-04-21 21:32 | 61.17118 | -149.98221 | 119 ft | 18 kts | 90° |
| 2026-04-21 21:33 | 61.17118 | -149.97930 | 119 ft | 21 kts | 90° |
| 2026-04-21 21:33 | 61.17119 | -149.97637 | 119 ft | 20 kts | 90° |
| 2026-04-21 21:33 | 61.17124 | -149.97352 | 118 ft | 19 kts | 86° |
| 2026-04-21 21:33 | 61.17128 | -149.97077 | 119 ft | 19 kts | 90° |
| 2026-04-21 21:34 | 61.17126 | -149.96874 | 119 ft | 12 kts | 105° |
| 2026-04-21 21:34 | 61.17055 | -149.96815 | 119 ft | 12 kts | 179° |
| 2026-04-21 21:34 | 61.16976 | -149.96814 | 118 ft | 11 kts | 180° |
| 2026-04-21 21:34 | 61.16911 | -149.96883 | 120 ft | 11 kts | 242° |
| 2026-04-21 21:35 | 61.16882 | -149.97030 | 120 ft | 11 kts | 248° |
| 2026-04-21 21:35 | 61.16852 | -149.97185 | 120 ft | 13 kts | 248° |
| 2026-04-21 21:35 | 61.16816 | -149.97367 | 120 ft | 15 kts | 247° |
| 2026-04-21 21:35 | 61.16788 | -149.97608 | 117 ft | 19 kts | 269° |
| 2026-04-21 21:36 | 61.16787 | -149.98055 | 118 ft | 60 kts | 270° |
| 2026-04-21 21:36 | 61.16787 | -149.99420 | 120 ft | 125 kts | 269° |
| 2026-04-21 21:36 | 61.16792 | -150.01588 | 209 ft | 169 kts | 269° |
| 2026-04-21 21:36 | 61.16803 | -150.03958 | 1108 ft | 154 kts | 265° |
| 2026-04-21 21:37 | 61.16729 | -150.06143 | 1901 ft | 157 kts | 259° |
| 2026-04-21 21:37 | 61.16599 | -150.08571 | 2298 ft | 185 kts | 259° |
| 2026-04-21 21:37 | 61.16396 | -150.11415 | 2557 ft | 209 kts | 249° |
| 2026-04-21 21:37 | 61.15465 | -150.13656 | 2939 ft | 218 kts | 205° |
| 2026-04-21 21:38 | 61.13940 | -150.14008 | 3590 ft | 227 kts | 171° |
| 2026-04-21 21:38 | 61.12499 | -150.12566 | 4274 ft | 238 kts | 141° |
| 2026-04-21 21:38 | 61.11536 | -150.09736 | 4978 ft | 246 kts | 115° |
| 2026-04-21 21:38 | 61.10946 | -150.06370 | 5640 ft | 253 kts | 111° |
| 2026-04-21 21:39 | 61.10385 | -150.02821 | 6129 ft | 270 kts | 110° |
| 2026-04-21 21:39 | 61.09800 | -149.99078 | 6866 ft | 276 kts | 110° |
| 2026-04-21 21:39 | 61.09199 | -149.95272 | 7645 ft | 281 kts | 110° |
| 2026-04-21 21:39 | 61.08580 | -149.91407 | 8445 ft | 285 kts | 110° |
| 2026-04-21 21:40 | 61.07945 | -149.87495 | 9207 ft | 290 kts | 110° |
| 2026-04-21 21:40 | 61.07292 | -149.83514 | 9978 ft | 295 kts | 109° |
| 2026-04-21 21:40 | 61.06606 | -149.79367 | 10415 ft | 312 kts | 110° |
| 2026-04-21 21:40 | 61.05881 | -149.75023 | 10593 ft | 336 kts | 110° |
| 2026-04-21 21:41 | 61.05083 | -149.70265 | 10962 ft | 353 kts | 110° |
| 2026-04-21 21:41 | 61.04277 | -149.65483 | 11533 ft | 363 kts | 110° |
| 2026-04-21 21:41 | 61.03436 | -149.60513 | 12167 ft | 371 kts | 110° |
| 2026-04-21 21:41 | 61.02569 | -149.55409 | 12675 ft | 382 kts | 110° |
| 2026-04-21 21:42 | 61.01680 | -149.50197 | 13256 ft | 389 kts | 110° |
| 2026-04-21 21:42 | 61.00773 | -149.44891 | 13934 ft | 396 kts | 110° |
| 2026-04-21 21:42 | 60.99846 | -149.39487 | 14479 ft | 404 kts | 110° |
| 2026-04-21 21:42 | 60.98900 | -149.33994 | 15180 ft | 410 kts | 110° |
| 2026-04-21 21:43 | 60.97938 | -149.28421 | 15887 ft | 416 kts | 111° |
| 2026-04-21 21:43 | 60.96960 | -149.22775 | 16569 ft | 422 kts | 111° |
| 2026-04-21 21:43 | 60.95963 | -149.17037 | 17197 ft | 429 kts | 111° |
| 2026-04-21 21:43 | 60.94948 | -149.11207 | 17816 ft | 436 kts | 111° |
| 2026-04-21 21:44 | 60.93916 | -149.05306 | 18503 ft | 441 kts | 111° |
| 2026-04-21 21:44 | 60.92868 | -148.99332 | 19090 ft | 447 kts | 111° |
| 2026-04-21 21:44 | 60.91803 | -148.93272 | 19649 ft | 453 kts | 111° |
| 2026-04-21 21:44 | 60.90723 | -148.87154 | 20266 ft | 458 kts | 111° |
| 2026-04-21 21:45 | 60.89626 | -148.80957 | 20830 ft | 464 kts | 111° |
| 2026-04-21 21:45 | 60.88513 | -148.74689 | 21341 ft | 472 kts | 111° |
| 2026-04-21 21:45 | 60.87380 | -148.68326 | 21891 ft | 477 kts | 111° |
| 2026-04-21 21:45 | 60.86235 | -148.61921 | 22465 ft | 480 kts | 111° |
| 2026-04-21 21:46 | 60.85077 | -148.55464 | 23044 ft | 485 kts | 111° |
| 2026-04-21 21:46 | 60.83902 | -148.48943 | 23484 ft | 489 kts | 111° |
| 2026-04-21 21:46 | 60.82714 | -148.42368 | 23860 ft | 495 kts | 111° |
| 2026-04-21 21:46 | 60.81508 | -148.35716 | 24285 ft | 500 kts | 111° |
| 2026-04-21 21:47 | 60.80289 | -148.29015 | 24747 ft | 502 kts | 111° |
| 2026-04-21 21:47 | 60.79065 | -148.22302 | 25203 ft | 505 kts | 111° |
| 2026-04-21 21:47 | 60.77826 | -148.15539 | 25631 ft | 509 kts | 111° |
| 2026-04-21 21:47 | 60.76576 | -148.08736 | 26049 ft | 513 kts | 111° |
| 2026-04-21 21:48 | 60.75314 | -148.01895 | 26465 ft | 516 kts | 111° |
| 2026-04-21 21:48 | 60.74040 | -147.95014 | 26885 ft | 519 kts | 111° |
| 2026-04-21 21:48 | 60.72757 | -147.88110 | 27293 ft | 522 kts | 111° |
| 2026-04-21 21:48 | 60.71471 | -147.81212 | 27694 ft | 525 kts | 111° |
| 2026-04-21 21:49 | 60.70295 | -147.74924 | 28040 ft | 528 kts | 111° |
| 2026-04-21 21:49 | 60.68992 | -147.67986 | 28384 ft | 531 kts | 111° |
| 2026-04-21 21:49 | 60.67776 | -147.61527 | 28766 ft | 533 kts | 111° |
| 2026-04-21 21:49 | 60.66682 | -147.55740 | 29084 ft | 535 kts | 111° |
| 2026-04-21 21:50 | 60.65637 | -147.50228 | 29372 ft | 537 kts | 111° |
| 2026-04-21 21:50 | 60.64622 | -147.44888 | 29641 ft | 539 kts | 111° |
| 2026-04-21 21:50 | 60.63605 | -147.39549 | 29890 ft | 541 kts | 110° |
| 2026-04-21 21:50 | 60.62576 | -147.34161 | 30122 ft | 544 kts | 110° |
| 2026-04-21 21:51 | 60.61887 | -147.30562 | 30252 ft | 545 kts | 111° |
| 2026-04-21 21:51 | 60.60344 | -147.22528 | 30582 ft | 547 kts | 111° |
| 2026-04-21 21:51 | 60.59229 | -147.16749 | 30897 ft | 547 kts | 111° |
| 2026-04-21 21:51 | 60.58136 | -147.11100 | 31288 ft | 544 kts | 111° |
| 2026-04-21 21:52 | 60.57050 | -147.05498 | 31702 ft | 541 kts | 111° |
| 2026-04-21 21:52 | 60.55944 | -146.99808 | 32101 ft | 538 kts | 111° |
| 2026-04-21 21:52 | 60.54723 | -146.93538 | 32497 ft | 539 kts | 111° |
| 2026-04-21 21:52 | 60.53337 | -146.86454 | 32785 ft | 540 kts | 111° |
| 2026-04-21 21:53 | 60.51947 | -146.79375 | 33191 ft | 539 kts | 111° |
| 2026-04-21 21:53 | 60.50562 | -146.72335 | 33715 ft | 535 kts | 111° |
| 2026-04-21 21:53 | 60.49186 | -146.65371 | 34226 ft | 530 kts | 111° |
| 2026-04-21 21:53 | 60.47881 | -146.58400 | 34609 ft | 527 kts | 107° |
| 2026-04-21 21:54 | 60.46952 | -146.51239 | 34930 ft | 524 kts | 101° |
| 2026-04-21 21:54 | 60.46170 | -146.44019 | 35088 ft | 526 kts | 100° |
| 2026-04-21 21:54 | 60.45417 | -146.36738 | 35083 ft | 528 kts | 100° |
| 2026-04-21 21:55 | 60.43886 | -146.22268 | 35071 ft | 521 kts | 101° |
| 2026-04-21 21:55 | 60.42290 | -146.08003 | 35082 ft | 519 kts | 101° |
| 2026-04-21 21:56 | 60.40650 | -145.93757 | 35084 ft | 520 kts | 102° |
| 2026-04-21 21:56 | 60.38992 | -145.79506 | 35086 ft | 521 kts | 102° |
| 2026-04-21 21:57 | 60.37321 | -145.65241 | 35072 ft | 522 kts | 102° |
| 2026-04-21 21:57 | 60.35636 | -145.50992 | 35081 ft | 522 kts | 102° |
| 2026-04-21 21:58 | 60.33936 | -145.36739 | 35061 ft | 522 kts | 102° |
| 2026-04-21 21:58 | 60.32219 | -145.22513 | 35068 ft | 522 kts | 102° |
| 2026-04-21 21:59 | 60.30778 | -145.10699 | 35052 ft | 522 kts | 102° |
| 2026-04-21 21:59 | 60.29034 | -144.96503 | 35057 ft | 521 kts | 102° |
| 2026-04-21 22:00 | 60.27280 | -144.82344 | 35046 ft | 520 kts | 102° |
| 2026-04-21 22:00 | 60.25514 | -144.68214 | 35065 ft | 520 kts | 103° |
| 2026-04-21 22:01 | 60.23727 | -144.54108 | 35058 ft | 520 kts | 103° |
| 2026-04-21 22:01 | 60.21932 | -144.40061 | 35057 ft | 517 kts | 103° |
| 2026-04-21 22:02 | 60.20130 | -144.26079 | 35043 ft | 516 kts | 103° |
| 2026-04-21 22:02 | 60.18319 | -144.12148 | 35044 ft | 515 kts | 103° |
| 2026-04-21 22:03 | 60.16497 | -143.98254 | 35046 ft | 514 kts | 103° |
| 2026-04-21 22:03 | 60.14663 | -143.84391 | 35053 ft | 514 kts | 103° |
| 2026-04-21 22:04 | 60.12812 | -143.70533 | 35051 ft | 514 kts | 103° |
| 2026-04-21 22:04 | 60.10934 | -143.56599 | 35056 ft | 515 kts | 103° |
| 2026-04-21 22:05 | 60.09065 | -143.42849 | 35053 ft | 515 kts | 104° |
| 2026-04-21 22:05 | 60.07153 | -143.28910 | 35055 ft | 516 kts | 104° |
| 2026-04-21 22:06 | 60.05275 | -143.15335 | 35057 ft | 516 kts | 104° |
| 2026-04-21 22:06 | 60.03343 | -143.01488 | 35058 ft | 517 kts | 104° |
| 2026-04-21 22:07 | 60.01403 | -142.87704 | 35055 ft | 517 kts | 104° |
| 2026-04-21 22:07 | 59.99481 | -142.74163 | 35052 ft | 517 kts | 104° |
| 2026-04-21 22:08 | 59.97506 | -142.60368 | 35056 ft | 516 kts | 104° |
| 2026-04-21 22:08 | 59.95517 | -142.46592 | 35056 ft | 516 kts | 104° |
| 2026-04-21 22:09 | 59.93516 | -142.32845 | 35051 ft | 516 kts | 105° |
| 2026-04-21 22:09 | 59.91506 | -142.19149 | 35058 ft | 515 kts | 105° |
| 2026-04-21 22:10 | 59.89497 | -142.05575 | 35053 ft | 514 kts | 105° |
| 2026-04-21 22:10 | 59.87463 | -141.91947 | 35054 ft | 513 kts | 105° |
| 2026-04-21 22:11 | 59.85433 | -141.78450 | 35057 ft | 512 kts | 105° |
| 2026-04-21 22:11 | 59.83376 | -141.64884 | 35048 ft | 512 kts | 105° |
| 2026-04-21 22:12 | 59.81309 | -141.51362 | 35059 ft | 511 kts | 105° |
| 2026-04-21 22:12 | 59.79231 | -141.37871 | 35051 ft | 510 kts | 105° |
| 2026-04-21 22:13 | 59.77140 | -141.24409 | 35054 ft | 510 kts | 106° |
| 2026-04-21 22:13 | 59.75036 | -141.10965 | 35060 ft | 510 kts | 106° |
| 2026-04-21 22:14 | 59.72920 | -140.97544 | 35054 ft | 510 kts | 106° |
| 2026-04-21 22:14 | 59.70790 | -140.84140 | 35065 ft | 510 kts | 106° |
| 2026-04-21 22:15 | 59.68644 | -140.70744 | 35061 ft | 510 kts | 107° |
| 2026-04-21 22:15 | 59.66488 | -140.57382 | 35062 ft | 510 kts | 107° |
| 2026-04-21 22:16 | 59.64319 | -140.44043 | 35066 ft | 509 kts | 107° |
| 2026-04-21 22:16 | 59.62139 | -140.30739 | 35069 ft | 509 kts | 107° |
| 2026-04-21 22:17 | 59.59947 | -140.17455 | 35061 ft | 508 kts | 107° |
| 2026-04-21 22:17 | 59.57744 | -140.04206 | 35072 ft | 508 kts | 107° |
| 2026-04-21 22:18 | 59.55532 | -139.90994 | 35070 ft | 507 kts | 107° |
| 2026-04-21 22:18 | 59.53308 | -139.77798 | 35070 ft | 507 kts | 107° |
| 2026-04-21 22:19 | 59.51034 | -139.64667 | 35072 ft | 507 kts | 111° |
| 2026-04-21 22:19 | 59.47841 | -139.52322 | 35091 ft | 506 kts | 120° |
| 2026-04-21 22:20 | 59.44367 | -139.40292 | 35074 ft | 506 kts | 120° |
| 2026-04-21 22:20 | 59.40920 | -139.28256 | 35083 ft | 505 kts | 120° |
| 2026-04-21 22:21 | 59.37511 | -139.16187 | 35070 ft | 505 kts | 119° |
| 2026-04-21 22:21 | 59.34112 | -139.04142 | 35077 ft | 505 kts | 119° |
| 2026-04-21 22:22 | 59.30703 | -138.92132 | 35077 ft | 505 kts | 120° |
| 2026-04-21 22:22 | 59.27304 | -138.80233 | 35085 ft | 504 kts | 120° |
| 2026-04-21 22:23 | 59.23846 | -138.68196 | 35051 ft | 505 kts | 120° |
| 2026-04-21 22:23 | 59.22136 | -138.62267 | 34530 ft | 510 kts | 120° |
| 2026-04-21 22:23 | 59.20397 | -138.56252 | 33901 ft | 509 kts | 120° |
| 2026-04-21 22:23 | 59.18656 | -138.50243 | 33179 ft | 509 kts | 120° |
| 2026-04-21 22:24 | 59.16907 | -138.44226 | 32513 ft | 510 kts | 120° |
| 2026-04-21 22:24 | 59.15154 | -138.38210 | 31791 ft | 511 kts | 119° |
| 2026-04-21 22:24 | 59.13397 | -138.32197 | 31216 ft | 510 kts | 119° |
| 2026-04-21 22:24 | 59.11648 | -138.26225 | 30713 ft | 506 kts | 119° |
| 2026-04-21 22:25 | 59.09905 | -138.20291 | 30217 ft | 504 kts | 119° |
| 2026-04-21 22:25 | 59.08169 | -138.14393 | 29604 ft | 501 kts | 119° |
| 2026-04-21 22:25 | 59.06441 | -138.08535 | 29061 ft | 497 kts | 119° |
| 2026-04-21 22:25 | 59.04709 | -138.02683 | 28555 ft | 490 kts | 119° |
| 2026-04-21 22:26 | 59.03019 | -137.96983 | 28075 ft | 485 kts | 119° |
| 2026-04-21 22:26 | 59.01342 | -137.91337 | 27554 ft | 481 kts | 119° |
| 2026-04-21 22:26 | 58.99674 | -137.85736 | 27078 ft | 477 kts | 120° |
| 2026-04-21 22:26 | 58.98013 | -137.80178 | 26564 ft | 475 kts | 120° |
| 2026-04-21 22:27 | 58.96364 | -137.74672 | 26086 ft | 471 kts | 120° |
| 2026-04-21 22:27 | 58.94723 | -137.69201 | 25619 ft | 468 kts | 120° |
| 2026-04-21 22:27 | 58.93089 | -137.63766 | 25121 ft | 465 kts | 120° |
| 2026-04-21 22:27 | 58.91465 | -137.58370 | 24683 ft | 463 kts | 120° |
| 2026-04-21 22:28 | 58.89843 | -137.52992 | 24166 ft | 462 kts | 120° |
| 2026-04-21 22:28 | 58.88223 | -137.47635 | 23672 ft | 460 kts | 120° |
| 2026-04-21 22:28 | 58.86612 | -137.42318 | 23119 ft | 457 kts | 120° |
| 2026-04-21 22:28 | 58.85010 | -137.37047 | 22630 ft | 454 kts | 120° |
| 2026-04-21 22:29 | 58.83416 | -137.31810 | 22115 ft | 450 kts | 120° |
| 2026-04-21 22:29 | 58.81840 | -137.26644 | 21673 ft | 444 kts | 120° |
| 2026-04-21 22:29 | 58.80277 | -137.21532 | 21197 ft | 440 kts | 120° |
| 2026-04-21 22:29 | 58.78724 | -137.16470 | 20730 ft | 437 kts | 120° |
| 2026-04-21 22:30 | 58.77183 | -137.11451 | 20283 ft | 434 kts | 120° |
| 2026-04-21 22:30 | 58.75648 | -137.06464 | 19831 ft | 432 kts | 121° |
| 2026-04-21 22:30 | 58.74120 | -137.01510 | 19360 ft | 428 kts | 120° |
| 2026-04-21 22:30 | 58.72602 | -136.96602 | 18897 ft | 424 kts | 121° |
| 2026-04-21 22:31 | 58.71101 | -136.91757 | 18468 ft | 419 kts | 121° |
| 2026-04-21 22:31 | 58.69613 | -136.86962 | 17989 ft | 416 kts | 121° |
| 2026-04-21 22:31 | 58.68131 | -136.82196 | 17436 ft | 414 kts | 121° |
| 2026-04-21 22:31 | 58.66664 | -136.77487 | 16961 ft | 410 kts | 121° |
| 2026-04-21 22:32 | 58.65203 | -136.72808 | 16520 ft | 407 kts | 121° |
| 2026-04-21 22:32 | 58.63752 | -136.68170 | 16078 ft | 404 kts | 121° |
| 2026-04-21 22:32 | 58.62311 | -136.63575 | 15635 ft | 400 kts | 121° |
| 2026-04-21 22:32 | 58.60935 | -136.59192 | 15225 ft | 397 kts | 122° |
| 2026-04-21 22:33 | 58.59514 | -136.54677 | 14784 ft | 394 kts | 122° |
| 2026-04-21 22:33 | 58.58101 | -136.50196 | 14367 ft | 391 kts | 122° |
| 2026-04-21 22:33 | 58.56701 | -136.45766 | 13973 ft | 387 kts | 122° |
| 2026-04-21 22:33 | 58.55313 | -136.41382 | 13479 ft | 384 kts | 122° |
| 2026-04-21 22:34 | 58.53932 | -136.37025 | 13040 ft | 380 kts | 122° |
| 2026-04-21 22:34 | 58.52569 | -136.32736 | 12646 ft | 375 kts | 122° |
| 2026-04-21 22:34 | 58.51220 | -136.28494 | 12215 ft | 371 kts | 122° |
| 2026-04-21 22:34 | 58.49884 | -136.24302 | 11808 ft | 367 kts | 122° |
| 2026-04-21 22:35 | 58.48561 | -136.20161 | 11418 ft | 363 kts | 122° |
| 2026-04-21 22:35 | 58.47251 | -136.16068 | 11008 ft | 360 kts | 122° |
| 2026-04-21 22:35 | 58.45955 | -136.12021 | 10632 ft | 352 kts | 122° |
| 2026-04-21 22:35 | 58.44717 | -136.08162 | 10484 ft | 331 kts | 122° |
| 2026-04-21 22:36 | 58.42442 | -136.01086 | 10225 ft | 296 kts | 123° |
| 2026-04-21 22:36 | 58.41390 | -135.97823 | 10128 ft | 283 kts | 123° |
| 2026-04-21 22:36 | 58.40359 | -135.94627 | 10026 ft | 282 kts | 123° |
| 2026-04-21 22:37 | 58.39329 | -135.91443 | 9849 ft | 283 kts | 123° |
| 2026-04-21 22:37 | 58.38290 | -135.88238 | 9570 ft | 285 kts | 123° |
| 2026-04-21 22:37 | 58.37251 | -135.85036 | 9294 ft | 283 kts | 123° |
| 2026-04-21 22:37 | 58.36375 | -135.81701 | 9003 ft | 283 kts | 103° |
| 2026-04-21 22:38 | 58.36220 | -135.78000 | 8814 ft | 279 kts | 90° |
| 2026-04-21 22:38 | 58.36204 | -135.74300 | 8511 ft | 279 kts | 90° |
| 2026-04-21 22:38 | 58.36198 | -135.70608 | 8250 ft | 278 kts | 90° |
| 2026-04-21 22:38 | 58.36190 | -135.66930 | 7981 ft | 277 kts | 90° |
| 2026-04-21 22:39 | 58.36178 | -135.63258 | 7711 ft | 277 kts | 90° |
| 2026-04-21 22:39 | 58.36162 | -135.59601 | 7434 ft | 276 kts | 90° |
| 2026-04-21 22:39 | 58.36143 | -135.55965 | 7162 ft | 272 kts | 91° |
| 2026-04-21 22:39 | 58.36122 | -135.52404 | 6903 ft | 265 kts | 91° |
| 2026-04-21 22:40 | 58.36099 | -135.48953 | 6652 ft | 257 kts | 92° |
| 2026-04-21 22:40 | 58.36084 | -135.46724 | 6483 ft | 252 kts | 92° |
| 2026-04-21 22:40 | 58.36060 | -135.43434 | 6227 ft | 245 kts | 92° |
| 2026-04-21 22:40 | 58.36036 | -135.40247 | 6014 ft | 238 kts | 92° |
| 2026-04-21 22:41 | 58.36011 | -135.37092 | 5776 ft | 238 kts | 92° |
| 2026-04-21 22:41 | 58.35984 | -135.33939 | 5568 ft | 239 kts | 92° |
| 2026-04-21 22:41 | 58.35958 | -135.30772 | 5282 ft | 239 kts | 92° |
| 2026-04-21 22:41 | 58.35930 | -135.27619 | 5094 ft | 237 kts | 92° |
| 2026-04-21 22:42 | 58.35902 | -135.24474 | 4834 ft | 236 kts | 92° |
| 2026-04-21 22:42 | 58.35874 | -135.21396 | 4762 ft | 231 kts | 92° |
| 2026-04-21 22:42 | 58.35843 | -135.18367 | 4667 ft | 228 kts | 92° |
| 2026-04-21 22:42 | 58.35815 | -135.15345 | 4530 ft | 228 kts | 91° |
| 2026-04-21 22:43 | 58.35787 | -135.12345 | 4452 ft | 226 kts | 92° |
| 2026-04-21 22:43 | 58.35758 | -135.09406 | 4347 ft | 218 kts | 92° |
| 2026-04-21 22:43 | 58.35729 | -135.06581 | 4192 ft | 210 kts | 92° |
| 2026-04-21 22:43 | 58.35699 | -135.03844 | 4075 ft | 206 kts | 92° |
| 2026-04-21 22:44 | 58.35669 | -135.01113 | 3881 ft | 206 kts | 92° |
| 2026-04-21 22:44 | 58.35672 | -134.98409 | 3674 ft | 202 kts | 90° |
| 2026-04-21 22:44 | 58.35686 | -134.95761 | 3456 ft | 197 kts | 90° |
| 2026-04-21 22:44 | 58.35698 | -134.93185 | 3254 ft | 192 kts | 91° |
| 2026-04-21 22:45 | 58.35709 | -134.90682 | 3051 ft | 186 kts | 91° |
| 2026-04-21 22:45 | 58.35719 | -134.88288 | 2911 ft | 176 kts | 91° |
| 2026-04-21 22:45 | 58.35727 | -134.85973 | 2752 ft | 175 kts | 91° |
| 2026-04-21 22:45 | 58.35735 | -134.83625 | 2520 ft | 179 kts | 91° |
| 2026-04-21 22:46 | 58.35743 | -134.81242 | 2265 ft | 180 kts | 91° |
| 2026-04-21 22:46 | 58.35751 | -134.78876 | 2012 ft | 175 kts | 91° |
| 2026-04-21 22:46 | 58.35758 | -134.76621 | 1799 ft | 167 kts | 91° |
| 2026-04-21 22:46 | 58.35764 | -134.74463 | 1585 ft | 163 kts | 92° |
| 2026-04-21 22:47 | 58.35769 | -134.72346 | 1334 ft | 156 kts | 91° |
| 2026-04-21 22:47 | 58.35774 | -134.70315 | 1141 ft | 151 kts | 91° |
| 2026-04-21 22:47 | 58.35778 | -134.68344 | 955 ft | 147 kts | 91° |
| 2026-04-21 22:47 | 58.35782 | -134.66388 | 741 ft | 147 kts | 92° |
| 2026-04-21 22:48 | 58.35811 | -134.64446 | 541 ft | 146 kts | 87° |
| 2026-04-21 22:48 | 58.35907 | -134.62574 | 359 ft | 136 kts | 86° |
| 2026-04-21 22:48 | 58.35915 | -134.60787 | 154 ft | 134 kts | 99° |
| 2026-04-21 22:48 | 58.35700 | -134.59105 | 40 ft | 124 kts | 104° |
| 2026-04-21 22:49 | 58.35518 | -134.57787 | 35 ft | 73 kts | 105° |
| 2026-04-21 22:49 | 58.35437 | -134.57210 | 34 ft | 31 kts | 104° |
| 2026-04-21 22:49 | 58.35388 | -134.56854 | 33 ft | 20 kts | 105° |
| 2026-04-21 22:49 | 58.35390 | -134.56700 | 32 ft | 11 kts | 34° |
| 2026-04-21 22:50 | 58.35464 | -134.56686 | 33 ft | 11 kts | 328° |
| 2026-04-21 22:50 | 58.35496 | -134.56821 | 33 ft | 13 kts | 284° |
| 2026-04-21 22:50 | 58.35525 | -134.57029 | 33 ft | 18 kts | 284° |
| 2026-04-21 22:50 | 58.35557 | -134.57263 | 32 ft | 18 kts | 284° |
| 2026-04-21 22:51 | 58.35589 | -134.57490 | 34 ft | 17 kts | 285° |
| 2026-04-21 22:51 | 58.35620 | -134.57709 | 34 ft | 17 kts | 284° |
| 2026-04-21 22:51 | 58.35649 | -134.57920 | 33 ft | 16 kts | 284° |
| 2026-04-21 22:51 | 58.35677 | -134.58123 | 33 ft | 16 kts | 284° |
| 2026-04-21 22:52 | 58.35704 | -134.58318 | 33 ft | 15 kts | 285° |
| 2026-04-21 22:52 | 58.35730 | -134.58503 | 33 ft | 12 kts | 284° |
| 2026-04-21 22:52 | 58.35762 | -134.58617 | 34 ft | 10 kts | 336° |
| 2026-04-21 22:52 | 58.35798 | -134.58541 | 34 ft | 10 kts | 92° |
| 2026-04-21 22:53 | 58.35784 | -134.58418 | 34 ft | 9 kts | 105° |
| 2026-04-21 22:53 | 58.35776 | -134.58326 | 34 ft | 6 kts | 70° |
| 2026-04-21 22:53 | 58.35814 | -134.58303 | 34 ft | 6 kts | 1° |
| 2026-04-21 22:53 | 58.35838 | -134.58303 | 34 ft | 0 kts | 359° |